메인 페이지
METAR-TAF:

METAR-TAF

공항 :

바트만, 터키

위도: 37-52N, 경도: 041-10E, 고도: 540m

현재 날씨관측

예보는 30분 전, 08:20시(UTC)에 발표되었습니다.
남남서6kt남남동풍과 풍을 오가는
온도 22°C
습도 29%
기압 1011 hPa
시정 10km 이상
1500m 미만 상공 구름 및 적란운 없음

METAR: LTCJ 100820Z 20006KT 150V260 CAVOK 22/03 Q1011 RMK RWY20 VRB05KT SKC

시각: 11:50 (08:50 UTC)

예보

예보는 4 시간 10분 전, 04:40시(UTC)에 발표되었습니다.
예보 대상 시간: 10일 06시부터 11일 06시까지 (UTC)
8kt
시정 10km 이상
1500m 미만 상공 구름 및 적란운 없음
전환 중
10일 07시부터 10일 09시까지 (UTC)
북북서10kt

TAF: LTCJ 100440Z 1006/1106 19008KT CAVOK BECMG 1007/1009 33010KT

4,000개 이상의 공항 관측 자료 및 예보 (METAR 및 TAF 보고).

지도상에서 검색 가능한 기상관측소가 노란 점과 빨간 점으로 표시되어 있습니다.

기상관측소 명을 보려면 표시 위로 마우스를 이동하세요.

날씨 관측과 예보를 보려면 클릭하세요.

지도 변경 : 확대하려면 엑스 표시가 있는 녹색 버튼, 축소하려면 빼기 표시가 있는 녹색 버튼, 다음 페이지의 지도를 보려면 녹색 화살표를 클릭하세요.


METAR-TAF: